createdAt,value
2022-11-25T00:01:14.096Z,100310.56
2022-11-25T00:03:42.393Z,100308.03
2022-11-25T00:06:32.147Z,100309.78
2022-11-25T00:09:01.776Z,100322.06
2022-11-25T00:11:28.604Z,100309.13
2022-11-25T00:13:56.432Z,100311.59
2022-11-25T00:16:26.400Z,100307.16
2022-11-25T00:18:54.567Z,100289.72
2022-11-25T00:21:31.268Z,100297.63
2022-11-25T00:24:00.491Z,100290.03
2022-11-25T00:26:28.846Z,100284.03
2022-11-25T00:28:58.262Z,100295.50
2022-11-25T00:31:30.275Z,100275.72
2022-11-25T00:33:57.305Z,100291.25
2022-11-25T00:36:31.045Z,100284.34
2022-11-25T00:39:00.749Z,100299.13
2022-11-25T00:41:47.832Z,100287.09
2022-11-25T00:44:35.881Z,100285.50
2022-11-25T00:47:15.282Z,100306.13
2022-11-25T00:49:46.106Z,100296.53
2022-11-25T00:52:18.625Z,100264.44
2022-11-25T00:54:47.621Z,100288.28
2022-11-25T00:57:15.423Z,100293.47
2022-11-25T00:59:42.188Z,100288.34
2022-11-25T01:02:10.875Z,100253.88
2022-11-25T01:04:38.064Z,100285.69
2022-11-25T01:07:05.185Z,100276.22
2022-11-25T01:09:32.136Z,100277.78
2022-11-25T01:11:59.011Z,100280.31
2022-11-25T01:14:25.894Z,100281.25
2022-11-25T01:16:52.697Z,100276.28
2022-11-25T01:19:20.221Z,100306.81
2022-11-25T01:21:47.204Z,100303.38
2022-11-25T01:24:15.446Z,100301.59
2022-11-25T01:26:42.536Z,100285.34
2022-11-25T01:29:16.882Z,100307.78
2022-11-25T01:31:43.892Z,100307.66
2022-11-25T01:34:18.726Z,100307.50
2022-11-25T01:36:45.942Z,100291.06
2022-11-25T01:39:19.839Z,100304.75
2022-11-25T01:41:47.369Z,100299.47
2022-11-25T01:44:19.831Z,100273.44
2022-11-25T01:46:52.581Z,100279.09
2022-11-25T01:49:34.809Z,100308.41
2022-11-25T01:52:13.240Z,100299.47
2022-11-25T01:55:01.888Z,100301.06
2022-11-25T01:57:34.962Z,100297.38
2022-11-25T02:00:05.698Z,100306.19
2022-11-25T02:02:32.608Z,100302.50
2022-11-25T02:05:01.640Z,100300.72
2022-11-25T02:07:34.882Z,100294.53
2022-11-25T02:10:03.581Z,100290.22
2022-11-25T02:12:31.050Z,100290.13
2022-11-25T02:14:59.546Z,100298.69
2022-11-25T02:17:26.263Z,100296.97
2022-11-25T02:19:59.272Z,100301.28
2022-11-25T02:23:10.078Z,100292.59
2022-11-25T02:25:39.621Z,100291.72
2022-11-25T02:28:06.253Z,100289.13
2022-11-25T02:30:33.509Z,100295.31
2022-11-25T02:33:00.965Z,100267.63
2022-11-25T02:35:32.148Z,100295.38
2022-11-25T02:38:13.351Z,100283.19
2022-11-25T02:41:04.555Z,100283.28
2022-11-25T02:43:31.246Z,100274.59
2022-11-25T02:46:00.469Z,100278.13
2022-11-25T02:49:00.838Z,100282.56
2022-11-25T02:51:20.496Z,100275.66
2022-11-25T02:53:47.490Z,100277.41
2022-11-25T02:56:16.004Z,100280.03
2022-11-25T02:58:42.862Z,100274.78
2022-11-25T03:01:09.726Z,100272.00
2022-11-25T03:03:37.865Z,100277.13
2022-11-25T03:06:04.496Z,100269.22
2022-11-25T03:08:31.219Z,100270.09
2022-11-25T03:10:57.754Z,100275.47
2022-11-25T03:13:24.464Z,100274.84
2022-11-25T03:15:51.026Z,100281.97
2022-11-25T03:18:17.639Z,100282.09
2022-11-25T03:20:44.141Z,100270.09
2022-11-25T03:23:10.704Z,100293.41
2022-11-25T03:25:37.257Z,100291.56
2022-11-25T03:28:04.763Z,100291.44
2022-11-25T03:30:31.623Z,100271.59
2022-11-25T03:32:58.197Z,100287.84
2022-11-25T03:35:24.726Z,100284.38
2022-11-25T03:37:51.349Z,100273.03
2022-11-25T03:40:18.262Z,100268.81
2022-11-25T03:42:45.101Z,100286.88
2022-11-25T03:45:13.614Z,100287.81
2022-11-25T03:47:44.213Z,100277.47
2022-11-25T03:50:13.118Z,100282.63
2022-11-25T03:52:40.111Z,100260.16
2022-11-25T03:55:07.372Z,100286.13
2022-11-25T03:57:34.143Z,100280.03
2022-11-25T04:00:01.999Z,100267.81
2022-11-25T04:02:28.658Z,100256.56
2022-11-25T04:04:55.243Z,100266.75
2022-11-25T04:07:22.072Z,100264.09
2022-11-25T04:09:48.656Z,100274.63
2022-11-25T04:12:34.080Z,100280.72
2022-11-25T04:15:00.579Z,100284.16
2022-11-25T04:17:27.113Z,100276.25
2022-11-25T04:19:53.721Z,100267.41
2022-11-25T04:22:20.295Z,100271.69
2022-11-25T04:24:46.888Z,100269.06
2022-11-25T04:27:13.451Z,100275.22
2022-11-25T04:29:40.044Z,100277.03
2022-11-25T04:32:06.687Z,100264.84
2022-11-25T04:34:33.415Z,100272.66
2022-11-25T04:37:00.081Z,100278.63
2022-11-25T04:39:26.594Z,100277.72
2022-11-25T04:42:16.152Z,100278.56
2022-11-25T04:44:51.960Z,100272.41
2022-11-25T04:47:29.810Z,100281.16
2022-11-25T04:49:56.458Z,100274.25
2022-11-25T04:52:23.285Z,100271.69
2022-11-25T04:54:49.854Z,100264.91
2022-11-25T04:57:17.020Z,100247.66
2022-11-25T04:59:43.890Z,100263.84
2022-11-25T05:02:17.088Z,100268.06
2022-11-25T05:04:45.397Z,100239.44
2022-11-25T05:07:12.482Z,100260.13
2022-11-25T05:09:39.379Z,100238.56
2022-11-25T05:12:08.025Z,100275.78
2022-11-25T05:14:35.896Z,100279.38
2022-11-25T05:17:07.010Z,100277.66
2022-11-25T05:19:35.933Z,100265.63
2022-11-25T05:22:02.541Z,100282.00
2022-11-25T05:24:29.087Z,100262.13
2022-11-25T05:26:55.799Z,100272.41
2022-11-25T05:29:22.473Z,100251.78
2022-11-25T05:31:49.049Z,100274.94
2022-11-25T05:34:15.827Z,100272.09
2022-11-25T05:36:42.312Z,100271.19
2022-11-25T05:39:08.895Z,100261.44
2022-11-25T05:41:35.467Z,100248.75
2022-11-25T05:44:02.143Z,100250.41
2022-11-25T05:46:29.049Z,100259.72
2022-11-25T05:48:56.678Z,100261.66
2022-11-25T05:51:24.398Z,100265.84
2022-11-25T05:54:00.830Z,100272.78
2022-11-25T05:56:27.450Z,100272.78
2022-11-25T05:58:55.009Z,100258.22
2022-11-25T06:01:23.353Z,100289.41
2022-11-25T06:03:50.095Z,100271.22
2022-11-25T06:06:17.623Z,100280.75
2022-11-25T06:08:44.665Z,100289.47
2022-11-25T06:11:13.769Z,100293.78
2022-11-25T06:13:41.290Z,100297.22
2022-11-25T06:16:12.948Z,100303.28
2022-11-25T06:18:39.869Z,100293.75
2022-11-25T06:21:07.684Z,100310.16
2022-11-25T06:23:35.208Z,100281.59
2022-11-25T06:26:05.846Z,100311.81
2022-11-25T06:28:32.298Z,100318.78
2022-11-25T06:31:08.927Z,100309.13
2022-11-25T06:33:35.679Z,100313.41
2022-11-25T06:36:04.116Z,100313.19
2022-11-25T06:38:31.261Z,100314.91
2022-11-25T06:41:05.509Z,100313.38
2022-11-25T06:43:32.793Z,100324.88
2022-11-25T06:46:07.689Z,100329.31
2022-11-25T06:48:35.257Z,100326.66
2022-11-25T06:51:05.329Z,100331.03
2022-11-25T06:53:33.106Z,100330.06
2022-11-25T06:56:05.648Z,100342.22
2022-11-25T06:58:36.385Z,100319.72
2022-11-25T07:01:05.803Z,100324.88
2022-11-25T07:03:32.690Z,100341.22
2022-11-25T07:05:59.919Z,100342.00
2022-11-25T07:08:32.305Z,100323.72
2022-11-25T07:11:13.271Z,100333.97
2022-11-25T07:13:39.975Z,100341.69
2022-11-25T07:16:07.080Z,100344.28
2022-11-25T07:18:36.724Z,100343.31
2022-11-25T07:21:11.372Z,100333.78
2022-11-25T07:23:38.333Z,100335.50
2022-11-25T07:26:08.010Z,100341.63
2022-11-25T07:28:35.819Z,100349.38
2022-11-25T07:31:27.590Z,100324.47
2022-11-25T07:34:02.869Z,100350.25
2022-11-25T07:36:30.526Z,100351.09
2022-11-25T07:39:02.716Z,100358.88
2022-11-25T07:41:31.382Z,100365.75
2022-11-25T07:44:00.595Z,100364.03
2022-11-25T07:46:31.313Z,100368.34
2022-11-25T07:48:58.867Z,100369.13
2022-11-25T07:51:31.967Z,100370.75
2022-11-25T07:54:00.721Z,100353.47
2022-11-25T07:56:28.422Z,100378.59
2022-11-25T07:58:56.435Z,100350.16
2022-11-25T08:01:23.330Z,100383.78
2022-11-25T08:03:51.163Z,100382.06
2022-11-25T08:06:26.065Z,100382.13
2022-11-25T08:08:55.424Z,100386.50
2022-11-25T08:11:28.118Z,100387.34
2022-11-25T08:13:55.086Z,100384.75
2022-11-25T08:16:24.099Z,100384.75
2022-11-25T08:18:51.156Z,100379.66
2022-11-25T08:21:18.167Z,100395.50
2022-11-25T08:23:48.633Z,100389.50
2022-11-25T08:26:21.843Z,100394.88
2022-11-25T08:28:48.780Z,100384.53
2022-11-25T08:31:23.753Z,100391.25
2022-11-25T08:33:51.322Z,100401.66
2022-11-25T08:36:18.583Z,100371.31
2022-11-25T08:38:47.497Z,100385.97
2022-11-25T08:41:26.123Z,100404.34
2022-11-25T08:43:52.839Z,100404.44
2022-11-25T08:46:22.306Z,100392.28
2022-11-25T08:48:49.217Z,100397.38
2022-11-25T08:51:19.746Z,100404.97
2022-11-25T08:53:47.462Z,100387.66
2022-11-25T08:56:14.922Z,100404.97
2022-11-25T08:58:41.437Z,100392.06
2022-11-25T09:01:09.054Z,100410.91
2022-11-25T09:03:39.638Z,100411.75
2022-11-25T09:06:07.652Z,100416.13
2022-11-25T09:08:34.432Z,100417.19
2022-11-25T09:11:01.069Z,100422.41
2022-11-25T09:13:27.781Z,100415.41
2022-11-25T09:15:54.532Z,100429.34
2022-11-25T09:18:26.004Z,100429.34
2022-11-25T09:20:53.865Z,100441.50
2022-11-25T09:23:23.287Z,100446.03
2022-11-25T09:25:56.720Z,100447.81
2022-11-25T09:28:24.606Z,100443.41
2022-11-25T09:30:52.193Z,100455.63
2022-11-25T09:33:19.861Z,100453.91
2022-11-25T09:35:47.407Z,100459.84
2022-11-25T09:38:14.491Z,100455.38
2022-11-25T09:40:57.175Z,100462.25
2022-11-25T09:44:02.442Z,100460.41
2022-11-25T09:46:47.282Z,100460.13
2022-11-25T09:49:15.003Z,100468.81
2022-11-25T09:52:01.951Z,100466.81
2022-11-25T09:54:39.979Z,100474.53
2022-11-25T09:57:27.032Z,100461.72
2022-11-25T10:00:10.984Z,100442.31
2022-11-25T10:03:01.256Z,100462.47
2022-11-25T10:05:34.630Z,100442.66
2022-11-25T10:08:09.294Z,100471.19
2022-11-25T10:10:46.471Z,100472.91
2022-11-25T10:13:20.435Z,100441.56
2022-11-25T10:15:50.355Z,100474.97
2022-11-25T10:18:29.849Z,100476.94
2022-11-25T10:20:56.417Z,100394.03
2022-11-25T10:23:33.978Z,100477.25
2022-11-25T10:26:13.387Z,100460.66
2022-11-25T10:28:44.481Z,100478.34
2022-11-25T10:31:18.585Z,100473.59
2022-11-25T10:33:46.745Z,100466.16
2022-11-25T10:36:36.673Z,100444.13
2022-11-25T10:39:11.321Z,100473.91
2022-11-25T10:41:46.657Z,100482.81
2022-11-25T10:44:27.108Z,100476.47
2022-11-25T10:47:13.981Z,100481.63
2022-11-25T10:50:08.387Z,100476.53
2022-11-25T10:52:44.412Z,100493.06
2022-11-25T10:55:15.172Z,100489.66
2022-11-25T10:57:43.011Z,100466.22
2022-11-25T11:00:34.852Z,100475.56
2022-11-25T11:03:14.529Z,100480.44
2022-11-25T11:05:49.425Z,100488.94
2022-11-25T11:08:28.126Z,100499.28
2022-11-25T11:11:15.970Z,100493.84
2022-11-25T11:13:42.764Z,100497.25
2022-11-25T11:16:31.921Z,100478.16
2022-11-25T11:18:58.741Z,100504.16
2022-11-25T11:21:34.524Z,100499.66
2022-11-25T11:24:03.494Z,100490.47
2022-11-25T11:26:35.860Z,100510.09
2022-11-25T11:29:15.208Z,100494.72
2022-11-25T11:31:51.445Z,100489.97
2022-11-25T11:34:42.929Z,100509.97
2022-11-25T11:37:48.162Z,100507.13
2022-11-25T11:40:37.249Z,100507.81
2022-11-25T11:43:06.415Z,100518.19
2022-11-25T11:45:51.618Z,100510.16
2022-11-25T11:48:51.537Z,100510.91
2022-11-25T11:51:34.638Z,100513.69
2022-11-25T11:54:14.051Z,100518.44
2022-11-25T11:56:55.282Z,100526.69
2022-11-25T11:59:34.830Z,100524.91
2022-11-25T12:02:14.563Z,100519.69
2022-11-25T12:04:47.350Z,100514.94
2022-11-25T12:07:21.284Z,100520.50
2022-11-25T12:10:29.608Z,100526.09
2022-11-25T12:13:17.478Z,100532.19
2022-11-25T12:16:01.732Z,100533.09
2022-11-25T12:19:00.767Z,100537.75
2022-11-25T12:21:55.196Z,100538.38
2022-11-25T12:24:26.897Z,100536.91
2022-11-25T12:27:00.743Z,100534.94
2022-11-25T12:29:31.424Z,100545.13
2022-11-25T12:32:02.731Z,100537.09
2022-11-25T12:34:44.524Z,100533.56
2022-11-25T12:37:18.016Z,100539.69
2022-11-25T12:40:07.539Z,100546.69
2022-11-25T12:42:39.307Z,100538.56
2022-11-25T12:45:22.406Z,100544.16
2022-11-25T12:47:49.276Z,100559.75
2022-11-25T12:50:20.825Z,100562.06
2022-11-25T12:53:02.589Z,100562.06
2022-11-25T12:55:32.028Z,100570.19
2022-11-25T12:58:20.213Z,100568.59
2022-11-25T13:01:11.348Z,100575.47
2022-11-25T13:04:15.665Z,100580.59
2022-11-25T13:06:59.516Z,100578.47
2022-11-25T13:09:54.052Z,100582.50
2022-11-25T13:12:54.941Z,100578.94
2022-11-25T13:15:29.575Z,100584.09
2022-11-25T13:18:04.040Z,100590.31
2022-11-25T13:20:30.627Z,100597.25
2022-11-25T13:23:08.020Z,100601.50
2022-11-25T13:25:36.220Z,100590.91
2022-11-25T13:28:05.163Z,100576.47
2022-11-25T13:30:31.718Z,100600.59
2022-11-25T13:33:19.287Z,100601.47
2022-11-25T13:35:52.390Z,100596.41
2022-11-25T13:38:35.215Z,100618.19
2022-11-25T13:41:23.943Z,100612.84
2022-11-25T13:44:07.509Z,100615.47
2022-11-25T13:46:42.597Z,100621.38
2022-11-25T13:49:51.280Z,100629.25
2022-11-25T13:52:17.751Z,100614.56
2022-11-25T13:54:50.259Z,100631.41
2022-11-25T13:57:32.580Z,100635.47
2022-11-25T14:00:01.647Z,100625.97
2022-11-25T14:02:45.717Z,100651.13
2022-11-25T14:05:43.154Z,100629.25
2022-11-25T14:08:24.101Z,100656.81
2022-11-25T14:11:11.578Z,100662.03
2022-11-25T14:13:57.726Z,100657.47
2022-11-25T14:16:53.071Z,100668.88
2022-11-25T14:19:57.463Z,100657.38
2022-11-25T14:23:03.928Z,100664.50
2022-11-25T14:25:56.580Z,100665.47
2022-11-25T14:29:15.791Z,100668.44
2022-11-25T14:31:49.101Z,100670.25
2022-11-25T14:34:32.907Z,100673.72
2022-11-25T14:37:13.739Z,100674.47
2022-11-25T14:40:01.901Z,100675.25
2022-11-25T14:42:43.931Z,100670.25
2022-11-25T14:45:30.842Z,100682.50
2022-11-25T14:47:58.062Z,100685.09
2022-11-25T14:50:40.770Z,100690.38
2022-11-25T14:53:14.776Z,100676.88
2022-11-25T14:55:55.670Z,100701.97
2022-11-25T14:58:24.301Z,100705.59
2022-11-25T15:01:02.663Z,100703.94
2022-11-25T15:03:29.468Z,100706.63
2022-11-25T15:08:44.578Z,100699.88
2022-11-25T15:11:20.008Z,100709.47
2022-11-25T15:13:55.017Z,100715.72
2022-11-25T15:16:25.186Z,100710.66
2022-11-25T15:18:52.715Z,100704.00
2022-11-25T15:21:27.444Z,100718.88
2022-11-25T15:23:54.050Z,100721.63
2022-11-25T15:26:32.070Z,100716.59
2022-11-25T15:29:10.242Z,100728.25
2022-11-25T15:31:38.952Z,100716.13
2022-11-25T15:34:10.592Z,100723.41
2022-11-25T15:36:37.242Z,100729.78
2022-11-25T15:39:17.701Z,100725.59
2022-11-25T15:41:47.213Z,100712.72
2022-11-25T15:44:23.924Z,100714.66
2022-11-25T15:47:00.719Z,100738.16
2022-11-25T15:49:28.224Z,100747.00
2022-11-25T15:52:06.124Z,100749.69
2022-11-25T15:54:40.261Z,100749.66
2022-11-25T15:57:21.763Z,100758.44
2022-11-25T15:59:55.701Z,100759.41
2022-11-25T16:02:43.534Z,100762.84
2022-11-25T16:05:15.402Z,100764.56
2022-11-25T16:07:50.823Z,100770.81
2022-11-25T16:10:22.263Z,100773.50
2022-11-25T16:13:20.907Z,100782.34
2022-11-25T16:15:59.672Z,100784.03
2022-11-25T16:18:56.200Z,100779.69
2022-11-25T16:21:24.398Z,100784.94
2022-11-25T16:23:56.684Z,100792.81
2022-11-25T16:26:33.595Z,100757.97
2022-11-25T16:29:02.320Z,100782.25
2022-11-25T16:31:28.888Z,100800.47
2022-11-25T16:34:09.618Z,100793.41
2022-11-25T16:36:35.961Z,100803.91
2022-11-25T16:39:02.457Z,100801.31
2022-11-25T16:41:29.935Z,100801.31
2022-11-25T16:44:00.866Z,100815.38
2022-11-25T16:46:30.177Z,100808.34
2022-11-25T16:48:56.813Z,100812.91
2022-11-25T16:51:25.095Z,100812.91
2022-11-25T16:53:51.620Z,100811.38
2022-11-25T16:56:24.868Z,100830.78
2022-11-25T16:58:51.442Z,100830.88
2022-11-25T17:01:20.135Z,100829.19
2022-11-25T17:03:46.808Z,100833.72
2022-11-25T17:06:21.453Z,100819.25
2022-11-25T17:08:48.670Z,100845.19
2022-11-25T17:11:22.065Z,100854.84
2022-11-25T17:13:51.271Z,100846.94
2022-11-25T17:16:20.956Z,100857.44
2022-11-25T17:18:48.768Z,100853.25
2022-11-25T17:21:17.026Z,100861.94
2022-11-25T17:23:45.127Z,100855.16
2022-11-25T17:26:20.182Z,100871.81
2022-11-25T17:29:11.462Z,100883.31
2022-11-25T17:31:38.943Z,100887.75
2022-11-25T17:34:05.783Z,100878.16
2022-11-25T17:36:32.572Z,100880.75
2022-11-25T17:38:59.299Z,100883.44
2022-11-25T17:41:28.686Z,100883.44
2022-11-25T17:43:55.691Z,100886.19
2022-11-25T17:46:22.311Z,100897.56
2022-11-25T17:48:49.013Z,100891.59
2022-11-25T17:51:15.840Z,100892.53
2022-11-25T17:53:42.461Z,100904.81
2022-11-25T17:56:25.923Z,100916.28
2022-11-25T17:58:53.153Z,100917.19
2022-11-25T18:01:20.304Z,100910.34
2022-11-25T18:03:49.421Z,100926.94
2022-11-25T18:06:16.289Z,100934.91
2022-11-25T18:08:43.190Z,100931.47
2022-11-25T18:11:17.490Z,100936.81
2022-11-25T18:13:45.896Z,100924.84
2022-11-25T18:16:14.843Z,100929.91
2022-11-25T18:18:41.694Z,100942.06
2022-11-25T18:21:09.288Z,100924.44
2022-11-25T18:23:36.144Z,100936.69
2022-11-25T18:26:02.867Z,100922.75
2022-11-25T18:28:31.070Z,100949.78
2022-11-25T18:31:02.736Z,100954.25
2022-11-25T18:33:30.135Z,100958.66
2022-11-25T18:35:57.246Z,100947.53
2022-11-25T18:38:24.013Z,100964.00
2022-11-25T18:40:53.845Z,100966.66
2022-11-25T18:43:25.014Z,100974.53
2022-11-25T18:45:53.493Z,100976.28
2022-11-25T18:48:23.168Z,100974.53
2022-11-25T18:50:51.799Z,100960.75
2022-11-25T18:53:18.441Z,100974.75
2022-11-25T18:55:46.454Z,101002.75
2022-11-25T18:58:19.687Z,100978.69
2022-11-25T19:00:51.147Z,101001.22
2022-11-25T19:03:21.859Z,101017.88
2022-11-25T19:05:49.089Z,101021.41
2022-11-25T19:08:18.850Z,101016.41
2022-11-25T19:10:47.040Z,101032.16
2022-11-25T19:13:36.754Z,101041.84
2022-11-25T19:16:07.534Z,101042.78
2022-11-25T19:18:35.099Z,101053.31
2022-11-25T19:21:01.848Z,101054.25
2022-11-25T19:23:29.069Z,101060.44
2022-11-25T19:26:02.054Z,101051.97
2022-11-25T19:28:30.553Z,101038.03
2022-11-25T19:31:03.226Z,101072.75
2022-11-25T19:33:36.729Z,101072.75
2022-11-25T19:36:04.066Z,101077.06
2022-11-25T19:38:32.853Z,101067.47
2022-11-25T19:40:59.501Z,101079.66
2022-11-25T19:43:29.544Z,101079.44
2022-11-25T19:45:57.657Z,101083.75
2022-11-25T19:48:27.210Z,101060.41
2022-11-25T19:50:59.548Z,101102.22
2022-11-25T19:53:33.210Z,101110.16
2022-11-25T19:56:04.009Z,101095.38
2022-11-25T19:58:31.138Z,101105.88
2022-11-25T20:01:01.884Z,101097.34
2022-11-25T20:03:31.134Z,101115.47
2022-11-25T20:05:58.440Z,101113.78
2022-11-25T20:08:27.718Z,101105.94
2022-11-25T20:10:55.242Z,101120.53
2022-11-25T20:13:26.241Z,101123.22
2022-11-25T20:15:54.883Z,101121.41
2022-11-25T20:18:24.223Z,101123.13
2022-11-25T20:20:58.371Z,101123.03
2022-11-25T20:23:29.718Z,101110.09
2022-11-25T20:25:56.321Z,101141.50
2022-11-25T20:28:25.697Z,101143.25
2022-11-25T20:30:53.508Z,101145.09
2022-11-25T20:33:24.257Z,101151.22
2022-11-25T20:35:53.634Z,101144.28
2022-11-25T20:38:28.780Z,101145.31
2022-11-25T20:40:57.729Z,101154.16
2022-11-25T20:43:39.578Z,101156.09
2022-11-25T20:46:12.316Z,101163.34
2022-11-25T20:48:39.174Z,101167.84
2022-11-25T20:51:17.440Z,101175.06
2022-11-25T20:53:50.873Z,101177.81
2022-11-25T20:56:21.667Z,101190.94
2022-11-25T20:58:51.137Z,101191.84
2022-11-25T21:01:22.962Z,101198.00
2022-11-25T21:03:50.869Z,101199.75
2022-11-25T21:06:40.965Z,101193.69
2022-11-25T21:09:20.645Z,101209.66
2022-11-25T21:11:49.831Z,101217.72
2022-11-25T21:14:20.289Z,101222.28
2022-11-25T21:16:49.214Z,101217.09
2022-11-25T21:19:23.336Z,101225.06
2022-11-25T21:21:55.518Z,101222.47
2022-11-25T21:24:43.798Z,101223.31
2022-11-25T21:27:17.044Z,101225.09
2022-11-25T21:29:49.245Z,101226.03
2022-11-25T21:32:24.574Z,101224.34
2022-11-25T21:34:52.045Z,101226.22
2022-11-25T21:37:28.720Z,101229.88
2022-11-25T21:39:58.023Z,101226.59
2022-11-25T21:42:25.399Z,101230.97
2022-11-25T21:44:53.446Z,101244.19
2022-11-25T21:47:23.892Z,101231.16
2022-11-25T21:49:51.256Z,101215.69
2022-11-25T21:52:19.083Z,101247.06
2022-11-25T21:54:46.077Z,101225.41
2022-11-25T21:57:26.278Z,101238.53
2022-11-25T21:59:53.051Z,101252.47
2022-11-25T22:02:24.975Z,101227.22
2022-11-25T22:04:52.364Z,101257.66
2022-11-25T22:07:19.043Z,101268.25
2022-11-25T22:09:45.723Z,101272.72
2022-11-25T22:12:32.616Z,101260.56
2022-11-25T22:15:06.856Z,101263.22
2022-11-25T22:17:33.609Z,101258.81
2022-11-25T22:20:00.209Z,101269.38
2022-11-25T22:22:27.751Z,101271.19
2022-11-25T22:24:54.337Z,101265.97
2022-11-25T22:27:24.239Z,101261.72
2022-11-25T22:29:51.799Z,101274.94
2022-11-25T22:32:18.992Z,101250.59
2022-11-25T22:34:46.002Z,101282.81
2022-11-25T22:37:22.710Z,101287.97
2022-11-25T22:39:49.582Z,101284.47
2022-11-25T22:42:28.299Z,101285.22
2022-11-25T22:44:57.346Z,101260.16
2022-11-25T22:47:42.671Z,101292.31
2022-11-25T22:50:20.206Z,101302.84
2022-11-25T22:52:46.946Z,101305.63
2022-11-25T22:55:19.923Z,101314.50
2022-11-25T22:57:47.110Z,101322.47
2022-11-25T23:00:21.202Z,101312.84
2022-11-25T23:02:48.903Z,101320.69
2022-11-25T23:05:36.449Z,101291.16
2022-11-25T23:08:12.403Z,101326.91
2022-11-25T23:10:39.068Z,101318.22
2022-11-25T23:13:05.627Z,101333.06
2022-11-25T23:15:32.236Z,101323.47
2022-11-25T23:18:00.769Z,101329.56
2022-11-25T23:20:31.711Z,101334.84
2022-11-25T23:23:02.584Z,101306.09
2022-11-25T23:25:29.089Z,101333.97
2022-11-25T23:27:55.709Z,101348.91
2022-11-25T23:30:23.364Z,101340.94
2022-11-25T23:32:52.981Z,101319.28
2022-11-25T23:35:25.124Z,101341.81
2022-11-25T23:37:56.528Z,101347.16
2022-11-25T23:40:24.567Z,101348.22
2022-11-25T23:42:51.525Z,101335.25
2022-11-25T23:45:20.895Z,101356.16
2022-11-25T23:47:50.022Z,101344.78
2022-11-25T23:50:30.223Z,101362.25
2022-11-25T23:53:01.254Z,101364.88
2022-11-25T23:55:32.289Z,101369.31
2022-11-25T23:58:01.470Z,101376.38
